Terminal Aerodrome Forecast
Issued by NWS Newport/Morehead City, NC

Home | Current Version | Previous Version | Text Only | Print | Product List | Glossary On
Versions: 1 2 3 4 5 6 7 8 9 10 11 12 13 14 15 16 17 18
000
FTUS42 KMHX 251135
TAFEWN
TAF
KEWN 251135Z 2512/2612 25010KT P6SM SCT005 BKN025
      TEMPO 2512/2513 BKN005
     FM251500 23009KT P6SM VCSH SCT025 BKN040
     FM252300 24005KT P6SM SCT025 BKN040
     FM260600 30003KT P6SM BKN007=

USA.gov is the U.S. government's official web portal to all federal, state and local government web resources and services.